Time;durP1;ratioP1;P1;durP2;ratioP2;P2;SDS_P1;SDS_P2;PMS_P1;PMS_P2;Temp;Humidity;BMP_temperature;BMP_pressure;BME280_temperature;BME280_humidity;BME280_pressure;Samples;Min_cycle;Max_cycle;Signal;HPM_P1;HPM_P2
2022/09/10 00:01:40;;;;;;;18.23;12.65;;;14.90;99.90;;;;;;5096698;28;20537;-60
2022/09/10 00:04:10;;;;;;;17.30;12.02;;;15.00;99.90;;;;;;5114134;28;20483;-60
2022/09/10 00:06:37;;;;;;;16.88;14.02;;;15.00;99.90;;;;;;5113744;28;20557;-60
2022/09/10 00:09:04;;;;;;;17.40;13.00;;;15.00;99.90;;;;;;5095514;28;20043;-60
2022/09/10 00:11:30;;;;;;;17.95;14.13;;;15.00;99.90;;;;;;5096418;28;20098;-60
2022/09/10 00:14:01;;;;;;;18.67;14.45;;;15.00;99.90;;;;;;5112991;28;20392;-60
2022/09/10 00:16:28;;;;;;;18.75;13.13;;;15.10;99.90;;;;;;5079289;28;20496;-60
2022/09/10 00:18:53;;;;;;;14.32;11.38;;;15.10;99.90;;;;;;5095705;28;20043;-60
2022/09/10 00:21:20;;;;;;;18.30;13.70;;;15.10;99.90;;;;;;5095246;28;20065;-60
2022/09/10 00:23:46;;;;;;;15.82;12.40;;;15.10;99.90;;;;;;5113941;28;20036;-60
2022/09/10 00:26:22;;;;;;;16.20;13.48;;;15.10;99.90;;;;;;5114287;28;20369;-60
2022/09/10 00:28:50;;;;;;;19.85;15.30;;;15.20;99.90;;;;;;5094726;28;20395;-60
2022/09/10 00:31:19;;;;;;;21.08;15.93;;;15.20;99.90;;;;;;5114201;28;20031;-60
2022/09/10 00:33:44;;;;;;;22.15;17.00;;;15.20;99.90;;;;;;5094934;28;20441;-60
2022/09/10 00:36:23;;;;;;;21.73;17.95;;;15.20;99.90;;;;;;5096080;28;20040;-60
2022/09/10 00:38:50;;;;;;;21.10;14.88;;;15.20;99.90;;;;;;5113447;28;20036;-60
2022/09/10 00:41:18;;;;;;;23.65;17.40;;;15.20;99.90;;;;;;5095177;28;20032;-60
2022/09/10 00:43:55;;;;;;;23.30;17.08;;;15.20;99.90;;;;;;5095863;28;20480;-60
2022/09/10 00:46:43;;;;;;;21.63;16.58;;;15.20;99.90;;;;;;5113757;28;20036;-60
2022/09/10 00:49:19;;;;;;;27.15;18.95;;;15.30;99.90;;;;;;5094200;28;20543;-60
2022/09/10 00:51:47;;;;;;;23.90;17.90;;;15.30;99.90;;;;;;5095686;28;20140;-60
2022/09/10 00:54:14;;;;;;;21.60;17.98;;;15.30;99.90;;;;;;5113838;28;20118;-60
2022/09/10 00:56:40;;;;;;;24.65;20.00;;;15.30;99.90;;;;;;5113058;28;20040;-60
2022/09/10 00:59:08;;;;;;;29.55;21.00;;;15.30;99.90;;;;;;5113005;28;20051;-60
2022/09/10 01:01:37;;;;;;;22.55;16.77;;;15.30;99.90;;;;;;5113575;28;20035;-60
2022/09/10 01:04:05;;;;;;;24.55;17.35;;;15.30;99.90;;;;;;5112085;28;20044;-60
2022/09/10 01:06:31;;;;;;;24.83;19.17;;;15.30;99.90;;;;;;5095213;28;20054;-60
2022/09/10 01:08:57;;;;;;;24.25;18.42;;;15.40;99.90;;;;;;5112432;28;20458;-60
2022/09/10 01:11:41;;;;;;;31.48;21.75;;;15.40;99.90;;;;;;5078551;28;20387;-60
2022/09/10 01:14:25;;;;;;;26.25;19.17;;;15.40;99.90;;;;;;5094687;28;20074;-60
2022/09/10 01:17:14;;;;;;;33.33;21.17;;;15.40;99.90;;;;;;5093863;28;20040;-60
2022/09/10 01:20:10;;;;;;;24.90;19.65;;;15.40;99.90;;;;;;5113276;28;20051;-60
2022/09/10 01:23:05;;;;;;;25.95;18.95;;;15.40;99.90;;;;;;5113035;28;20048;-60
2022/09/10 01:26:12;;;;;;;25.33;18.65;;;15.40;99.90;;;;;;5078141;28;20091;-60
2022/09/10 01:28:38;;;;;;;28.60;19.90;;;15.40;99.90;;;;;;5046589;28;20039;-60
2022/09/10 01:31:14;;;;;;;29.13;22.40;;;15.40;99.90;;;;;;5111636;28;20105;-60
2022/09/10 01:33:48;;;;;;;33.17;23.88;;;15.40;99.90;;;;;;5113332;28;20067;-60
2022/09/10 01:36:21;;;;;;;28.15;21.25;;;15.40;99.90;;;;;;5113156;28;20043;-60
2022/09/10 01:38:49;;;;;;;31.05;22.80;;;15.50;99.90;;;;;;5111622;28;20043;-60
2022/09/10 01:41:15;;;;;;;30.15;22.15;;;15.40;99.90;;;;;;5094908;28;20048;-60
2022/09/10 01:43:41;;;;;;;30.35;19.67;;;15.50;99.90;;;;;;5112870;28;20559;-60
2022/09/10 01:46:25;;;;;;;27.73;20.02;;;15.50;99.90;;;;;;5093366;28;20062;-60
2022/09/10 01:48:58;;;;;;;27.17;21.13;;;15.50;99.90;;;;;;5094458;28;20050;-60
2022/09/10 01:51:28;;;;;;;28.50;22.58;;;15.50;99.90;;;;;;5112076;28;20079;-60
2022/09/10 01:54:15;;;;;;;29.55;22.58;;;15.50;99.90;;;;;;5094202;28;20051;-60
2022/09/10 01:56:51;;;;;;;26.73;18.75;;;15.50;99.90;;;;;;5112854;28;20046;-60
2022/09/10 01:59:47;;;;;;;25.90;20.42;;;15.50;99.90;;;;;;5077152;28;20484;-60
2022/09/10 02:02:15;;;;;;;;;;;15.50;99.90;;;;;;5099394;28;20051;-60
2022/09/10 02:04:43;;;;;;;27.60;21.20;;;15.50;99.90;;;;;;5094449;28;19920;-60
2022/09/10 02:07:11;;;;;;;26.55;21.13;;;15.40;99.90;;;;;;5092844;28;20042;-60
2022/09/10 02:09:36;;;;;;;25.52;20.33;;;15.40;99.90;;;;;;5112612;28;20377;-60
2022/09/10 02:12:02;;;;;;;30.50;21.48;;;15.50;99.90;;;;;;5093539;28;20072;-60
2022/09/10 02:14:28;;;;;;;31.80;23.30;;;15.50;99.90;;;;;;5112519;28;20067;-60
2022/09/10 02:16:58;;;;;;;29.33;22.42;;;15.50;99.90;;;;;;5093577;28;20039;-60
2022/09/10 02:19:25;;;;;;;30.85;22.95;;;15.50;99.90;;;;;;5111997;28;20071;-60
2022/09/10 02:21:54;;;;;;;25.98;19.48;;;15.50;99.90;;;;;;5093718;28;20404;-60
2022/09/10 02:24:21;;;;;;;30.17;22.58;;;15.50;99.90;;;;;;5094362;28;20036;-60
2022/09/10 02:26:47;;;;;;;26.60;19.92;;;15.50;99.90;;;;;;5092832;28;20039;-60
2022/09/10 02:29:15;;;;;;;26.17;20.42;;;15.50;99.90;;;;;;5112394;28;20050;-60
2022/09/10 02:31:42;;;;;;;31.95;22.40;;;15.50;99.90;;;;;;5094377;28;20114;-60
2022/09/10 02:34:09;;;;;;;28.15;20.67;;;15.50;99.90;;;;;;5114377;28;20119;-60
2022/09/10 02:36:35;;;;;;;31.15;23.10;;;15.50;99.90;;;;;;5098402;28;20488;-60
2022/09/10 02:39:03;;;;;;;34.83;23.10;;;15.50;99.90;;;;;;5115724;28;20080;-60
2022/09/10 02:41:32;;;;;;;29.15;23.63;;;15.50;99.90;;;;;;5097408;28;20507;-60
2022/09/10 02:44:00;;;;;;;32.72;21.35;;;15.40;99.90;;;;;;5097338;28;20043;-60
2022/09/10 02:46:25;;;;;;;32.42;24.33;;;15.40;99.90;;;;;;5116422;28;20433;-60
2022/09/10 02:48:54;;;;;;;30.90;21.80;;;15.40;99.90;;;;;;5096798;28;20047;-60
2022/09/10 02:51:20;;;;;;;26.40;21.15;;;15.40;99.90;;;;;;5098028;28;20492;-60
2022/09/10 02:53:46;;;;;;;34.78;25.73;;;15.40;99.90;;;;;;5097330;28;20360;-60
2022/09/10 02:56:12;;;;;;;33.67;22.70;;;15.40;99.90;;;;;;5097060;28;20042;-60
2022/09/10 02:58:38;;;;;;;29.10;21.45;;;15.40;99.90;;;;;;5097572;28;20507;-60
2022/09/10 03:01:04;;;;;;;31.88;23.65;;;15.40;99.90;;;;;;5097026;28;20056;-60
2022/09/10 03:03:30;;;;;;;35.72;26.08;;;15.40;99.90;;;;;;5096996;28;20085;-60
2022/09/10 03:05:56;;;;;;;38.10;26.65;;;15.40;99.90;;;;;;5096954;28;20036;-60
2022/09/10 03:08:21;;;;;;;31.80;24.13;;;15.40;99.90;;;;;;5097009;28;20035;-60
2022/09/10 03:10:47;;;;;;;34.00;26.02;;;15.40;99.90;;;;;;5097061;28;20564;-60
2022/09/10 03:13:13;;;;;;;34.70;24.80;;;15.40;99.90;;;;;;5097486;28;20038;-60
2022/09/10 03:15:41;;;;;;;34.70;26.35;;;15.30;99.90;;;;;;5096602;28;20046;-60
2022/09/10 03:18:08;;;;;;;37.47;26.58;;;15.30;99.90;;;;;;5080202;28;20039;-60
2022/09/10 03:20:35;;;;;;;39.05;28.67;;;15.30;99.90;;;;;;5115585;28;20127;-60
2022/09/10 03:23:02;;;;;;;36.30;26.60;;;15.20;99.90;;;;;;5095730;28;20484;-60
2022/09/10 03:25:28;;;;;;;36.97;28.58;;;15.20;99.90;;;;;;5115428;28;20066;-60
2022/09/10 03:27:54;;;;;;;37.80;26.85;;;15.20;99.90;;;;;;5096514;28;20035;-60
2022/09/10 03:30:20;;;;;;;38.35;28.08;;;15.20;99.90;;;;;;5114762;28;20023;-60
2022/09/10 03:32:46;;;;;;;38.65;28.35;;;15.20;99.90;;;;;;5079806;28;20472;-60
2022/09/10 03:35:12;;;;;;;33.03;26.48;;;15.20;99.90;;;;;;5115334;28;20396;-60
2022/09/10 03:37:39;;;;;;;36.67;26.08;;;15.20;99.90;;;;;;5114357;28;20046;-60
2022/09/10 03:40:06;;;;;;;38.47;26.42;;;15.20;99.90;;;;;;5114601;28;20085;-60
2022/09/10 03:42:32;;;;;;;38.00;26.67;;;15.20;99.90;;;;;;5115098;28;20035;-60
2022/09/10 03:44:58;;;;;;;35.45;26.60;;;15.20;99.90;;;;;;5094223;28;20046;-60
2022/09/10 03:47:23;;;;;;;38.47;26.08;;;15.20;99.90;;;;;;5115142;28;20450;-60
2022/09/10 03:49:49;;;;;;;39.35;27.50;;;15.20;99.90;;;;;;5114592;28;20414;-60
2022/09/10 03:52:16;;;;;;;38.17;27.38;;;15.20;99.90;;;;;;5096136;28;20043;-60
2022/09/10 03:54:41;;;;;;;30.33;23.70;;;15.20;99.90;;;;;;5114717;28;20028;-60
2022/09/10 03:57:07;;;;;;;31.80;24.92;;;15.20;99.90;;;;;;5096360;28;20122;-60
2022/09/10 03:59:34;;;;;;;38.38;28.73;;;15.20;99.90;;;;;;5096021;28;20489;-60
2022/09/10 04:02:00;;;;;;;44.13;28.92;;;15.20;99.90;;;;;;5114430;28;20066;-60
2022/09/10 04:04:26;;;;;;;40.65;29.30;;;15.20;99.90;;;;;;5096891;28;20047;-60
2022/09/10 04:06:53;;;;;;;43.13;30.70;;;15.20;99.90;;;;;;5113191;28;20598;-60
2022/09/10 04:09:19;;;;;;;36.22;26.48;;;15.20;99.90;;;;;;5096367;28;20088;-60
2022/09/10 04:11:44;;;;;;;33.78;27.38;;;15.20;99.90;;;;;;5095344;28;20036;-60
2022/09/10 04:14:10;;;;;;;31.23;23.75;;;15.20;99.90;;;;;;5096540;28;20036;-60
2022/09/10 04:16:36;;;;;;;37.25;26.60;;;15.20;99.90;;;;;;5096346;28;20453;-60
2022/09/10 04:19:01;;;;;;;37.60;26.65;;;15.30;99.90;;;;;;5113007;28;20040;-60
2022/09/10 04:21:27;;;;;;;29.55;23.48;;;15.30;99.90;;;;;;5079058;28;20052;-60
2022/09/10 04:23:54;;;;;;;26.23;20.27;;;15.30;99.90;;;;;;5113635;28;20039;-60
2022/09/10 04:26:21;;;;;;;39.85;28.70;;;15.30;99.90;;;;;;5095498;28;20476;-60
2022/09/10 04:28:46;;;;;;;38.33;27.77;;;15.30;99.90;;;;;;5095546;28;20084;-60
2022/09/10 04:31:12;;;;;;;34.03;24.80;;;15.30;99.90;;;;;;5114186;28;20035;-60
2022/09/10 04:33:38;;;;;;;33.40;25.52;;;15.30;99.90;;;;;;5095321;28;20040;-60
2022/09/10 04:36:04;;;;;;;38.88;29.42;;;15.30;99.90;;;;;;5113489;28;20032;-60
2022/09/10 04:38:31;;;;;;;42.35;28.65;;;15.40;99.90;;;;;;5095642;28;20087;-60
2022/09/10 04:40:59;;;;;;;41.47;28.50;;;15.40;99.90;;;;;;5112913;28;20048;-60
2022/09/10 04:43:25;;;;;;;39.78;29.35;;;15.40;99.90;;;;;;5078883;28;20088;-60
2022/09/10 04:45:54;;;;;;;38.38;27.13;;;15.30;99.90;;;;;;5095088;28;20043;-60
2022/09/10 04:48:23;;;;;;;41.28;28.65;;;15.30;99.90;;;;;;5095019;28;20045;-60
2022/09/10 04:50:50;;;;;;;40.60;29.40;;;15.30;99.90;;;;;;5113178;28;20118;-60
2022/09/10 04:53:16;;;;;;;36.55;24.73;;;15.30;99.90;;;;;;5095562;28;20040;-60
2022/09/10 04:55:44;;;;;;;41.83;31.17;;;15.30;99.90;;;;;;5112821;28;20046;-60
2022/09/10 04:58:10;;;;;;;34.05;25.27;;;15.30;99.90;;;;;;5095583;28;20484;-60
2022/09/10 05:00:38;;;;;;;38.15;28.45;;;15.30;99.90;;;;;;5078566;28;20475;-60
2022/09/10 05:03:04;;;;;;;43.00;30.63;;;15.30;99.90;;;;;;5112274;28;20120;-60
2022/09/10 05:05:30;;;;;;;34.78;25.35;;;15.30;99.90;;;;;;5113374;28;20050;-60
2022/09/10 05:07:58;;;;;;;44.80;30.05;;;15.30;99.90;;;;;;5111943;28;20490;-60
2022/09/10 05:10:24;;;;;;;44.13;31.27;;;15.30;99.90;;;;;;5095194;28;20549;-60
2022/09/10 05:12:49;;;;;;;43.13;29.80;;;15.30;99.90;;;;;;5095040;28;20040;-60
2022/09/10 05:15:15;;;;;;;35.88;27.85;;;15.30;99.90;;;;;;5094647;28;20051;-60
2022/09/10 05:17:41;;;;;;;33.10;25.33;;;15.30;99.90;;;;;;5095203;28;20511;-60
2022/09/10 05:20:07;;;;;;;35.67;27.10;;;15.30;99.90;;;;;;5112597;28;20101;-60
2022/09/10 05:22:35;;;;;;;37.17;25.95;;;15.30;99.90;;;;;;5094282;28;20522;-60
2022/09/10 05:25:02;;;;;;;33.45;26.25;;;15.30;99.90;;;;;;5094360;28;20044;-60
2022/09/10 05:27:28;;;;;;;39.42;25.75;;;15.30;99.90;;;;;;5077995;28;20047;-60
2022/09/10 05:29:56;;;;;;;39.17;28.60;;;15.30;99.90;;;;;;5093903;28;20051;-60
2022/09/10 05:32:22;;;;;;;38.42;30.23;;;15.30;99.90;;;;;;5113079;28;20123;-60
2022/09/10 05:34:47;;;;;;;40.97;30.33;;;15.30;99.90;;;;;;5112331;28;20519;-60
2022/09/10 05:37:14;;;;;;;39.70;28.38;;;15.20;99.90;;;;;;5094295;28;20039;-60
2022/09/10 05:39:40;;;;;;;42.65;29.23;;;15.20;99.90;;;;;;5094955;28;20036;-60
2022/09/10 05:42:06;;;;;;;43.40;29.60;;;15.20;99.90;;;;;;5094510;28;20433;-60
2022/09/10 05:44:32;;;;;;;46.28;30.75;;;15.20;99.90;;;;;;5112400;28;20078;-60
2022/09/10 05:46:58;;;;;;;42.38;29.40;;;15.20;99.90;;;;;;5094141;28;20069;-60
2022/09/10 05:49:24;;;;;;;37.15;27.27;;;15.20;99.90;;;;;;5077569;28;20111;-60
2022/09/10 05:51:50;;;;;;;32.85;24.60;;;15.20;99.90;;;;;;5111487;28;20046;-60
2022/09/10 05:54:15;;;;;;;45.67;31.52;;;15.20;99.90;;;;;;5113003;28;20097;-60
2022/09/10 05:56:41;;;;;;;38.78;28.25;;;15.20;99.90;;;;;;5094491;28;20484;-60
2022/09/10 05:59:08;;;;;;;37.67;27.20;;;15.20;99.90;;;;;;5093321;28;20048;-60
2022/09/10 06:01:34;;;;;;;39.40;28.88;;;15.30;99.90;;;;;;5112640;28;20051;-60
2022/09/10 06:04:00;;;;;;;40.65;27.95;;;15.30;99.90;;;;;;5093903;28;20054;-60
2022/09/10 06:06:27;;;;;;;41.83;29.27;;;15.30;99.90;;;;;;5093720;28;20396;-60
2022/09/10 06:08:54;;;;;;;40.35;29.92;;;15.30;99.90;;;;;;5115000;28;20424;-60
2022/09/10 06:11:20;;;;;;;37.40;28.20;;;15.30;99.90;;;;;;5080976;28;20118;-60
2022/09/10 06:13:46;;;;;;;38.50;29.67;;;15.30;99.90;;;;;;5088507;28;20044;-60
2022/09/10 06:16:12;;;;;;;38.33;28.73;;;15.30;99.90;;;;;;5111766;28;20066;-60
2022/09/10 06:18:38;;;;;;;38.92;28.35;;;15.20;99.90;;;;;;5116926;27;20069;-60
2022/09/10 06:21:13;;;;;;;39.17;28.85;;;15.30;99.90;;;;;;5133781;27;20496;-60
2022/09/10 06:23:39;;;;;;;39.28;28.65;;;15.30;99.90;;;;;;5115825;27;20058;-60
2022/09/10 06:26:08;;;;;;;40.75;28.55;;;15.30;99.90;;;;;;5133102;27;20047;-60
2022/09/10 06:28:34;;;;;;;37.35;27.23;;;15.30;99.90;;;;;;5115113;27;20031;-60
2022/09/10 06:31:03;;;;;;;35.13;25.58;;;15.30;99.90;;;;;;5096072;27;20378;-60
2022/09/10 06:33:29;;;;;;;39.15;27.92;;;15.30;99.90;;;;;;5114855;27;20070;-60
2022/09/10 06:35:57;;;;;;;33.55;26.25;;;15.30;99.90;;;;;;5133358;27;20054;-60
2022/09/10 06:38:23;;;;;;;37.67;27.50;;;15.30;99.90;;;;;;5133975;27;20572;-60
2022/09/10 06:40:59;;;;;;;33.80;27.30;;;15.30;99.90;;;;;;5133058;27;20039;-61
2022/09/10 06:43:25;;;;;;;35.63;26.70;;;15.30;99.90;;;;;;5132117;27;20387;-60
2022/09/10 06:45:52;;;;;;;38.70;27.67;;;15.40;99.90;;;;;;5094493;28;20891;-60
2022/09/10 06:48:26;;;;;;;37.58;26.67;;;15.40;99.90;;;;;;5096322;27;20089;-61
2022/09/10 06:50:58;;;;;;;34.90;24.55;;;15.50;99.90;;;;;;5100925;28;20044;-61
2022/09/10 06:53:27;;;;;;;34.13;26.33;;;15.50;99.90;;;;;;5058436;28;20439;-60
2022/09/10 06:55:53;;;;;;;34.92;26.52;;;15.50;99.90;;;;;;5057804;28;20119;-60
2022/09/10 06:58:22;;;;;;;34.03;25.23;;;15.60;99.90;;;;;;5093482;28;20047;-61
2022/09/10 07:00:48;;;;;;;33.80;25.45;;;15.60;99.90;;;;;;5091803;28;20138;-61
2022/09/10 07:03:19;;;;;;;31.50;22.58;;;15.60;99.90;;;;;;5075524;27;20127;-61
2022/09/10 07:05:46;;;;;;;32.67;25.02;;;15.70;99.90;;;;;;5121529;27;20032;-60
2022/09/10 07:08:13;;;;;;;30.98;22.50;;;15.70;99.90;;;;;;5103396;27;20140;-60
2022/09/10 07:10:40;;;;;;;28.67;23.17;;;15.70;99.90;;;;;;5114229;27;20043;-61
2022/09/10 07:13:06;;;;;;;32.42;24.42;;;15.80;99.90;;;;;;5094676;28;20047;-61
2022/09/10 07:15:32;;;;;;;33.80;24.25;;;15.80;99.90;;;;;;5112229;27;20108;-60
2022/09/10 07:17:59;;;;;;;30.48;23.88;;;15.80;99.90;;;;;;5132859;27;20483;-60
2022/09/10 07:20:28;;;;;;;32.40;24.35;;;15.80;99.90;;;;;;5108382;27;20496;-60
2022/09/10 07:22:57;;;;;;;34.55;26.35;;;15.90;99.90;;;;;;5096450;28;20113;-60
2022/09/10 07:25:25;;;;;;;28.75;21.20;;;15.90;99.90;;;;;;5089525;27;20785;-60
2022/09/10 07:27:51;;;;;;;30.90;22.60;;;16.00;99.90;;;;;;5129490;27;20049;-60
2022/09/10 07:30:17;;;;;;;26.42;19.42;;;16.00;99.90;;;;;;5109604;28;20461;-60
2022/09/10 07:32:44;;;;;;;31.73;21.88;;;16.10;99.90;;;;;;5093753;28;20092;-60
2022/09/10 07:35:10;;;;;;;31.10;24.48;;;16.10;99.90;;;;;;5078284;27;20132;-60
2022/09/10 07:37:38;;;;;;;26.02;19.92;;;16.10;99.90;;;;;;5080109;28;20040;-60
2022/09/10 07:40:05;;;;;;;29.70;22.67;;;16.20;99.90;;;;;;5107278;27;20139;-60
2022/09/10 07:42:31;;;;;;;30.88;21.83;;;16.20;99.90;;;;;;5115874;27;20396;-60
2022/09/10 07:44:56;;;;;;;26.52;21.55;;;16.30;99.90;;;;;;5067501;27;20044;-60
2022/09/10 07:47:24;;;;;;;27.30;22.70;;;16.30;99.90;;;;;;5119915;27;20131;-60
2022/09/10 07:49:51;;;;;;;28.85;20.38;;;16.40;99.90;;;;;;5092813;28;20103;-60
2022/09/10 07:52:17;;;;;;;25.90;19.65;;;16.50;99.90;;;;;;5093897;28;20048;-60
2022/09/10 07:54:43;;;;;;;34.25;21.67;;;16.50;99.90;;;;;;5113989;28;20031;-60
2022/09/10 07:57:09;;;;;;;18.60;13.82;;;16.60;99.90;;;;;;5095738;28;20036;-60
2022/09/10 07:59:34;;;;;;;24.10;18.30;;;16.60;99.90;;;;;;5096803;28;20035;-60
2022/09/10 08:02:00;;;;;;;22.17;17.70;;;16.70;99.90;;;;;;5096214;28;20043;-60
2022/09/10 08:04:30;;;;;;;22.25;18.77;;;16.80;99.90;;;;;;5095804;28;20039;-60
2022/09/10 08:06:55;;;;;;;27.73;20.77;;;16.80;99.90;;;;;;5114882;28;20039;-60
2022/09/10 08:09:21;;;;;;;24.55;17.98;;;16.90;99.90;;;;;;5096152;28;20361;-60
2022/09/10 08:11:47;;;;;;;23.90;18.20;;;16.90;99.90;;;;;;5095715;28;20059;-61
2022/09/10 08:14:12;;;;;;;24.45;17.30;;;17.00;99.90;;;;;;5096389;28;20106;-60
2022/09/10 08:16:38;;;;;;;29.63;19.88;;;17.10;99.90;;;;;;5114131;27;20132;-60
2022/09/10 08:19:04;;;;;;;23.38;17.02;;;17.10;99.90;;;;;;5111272;28;20048;-60
2022/09/10 08:21:30;;;;;;;29.35;20.15;;;17.10;99.90;;;;;;5118034;27;20483;-60
2022/09/10 08:23:56;;;;;;;22.00;17.58;;;17.10;99.90;;;;;;5080620;28;20093;-60
2022/09/10 08:26:24;;;;;;;22.65;18.65;;;17.10;99.90;;;;;;5072634;28;20115;-60
2022/09/10 08:28:54;;;;;;;31.23;17.50;;;17.20;99.90;;;;;;5084519;28;20123;-60
2022/09/10 08:31:21;;;;;;;24.75;16.98;;;17.20;99.90;;;;;;5113716;28;20040;-60
2022/09/10 08:33:49;;;;;;;21.85;18.35;;;17.20;99.90;;;;;;5112786;28;20597;-60
2022/09/10 08:36:15;;;;;;;17.60;15.32;;;17.20;99.90;;;;;;5112640;27;20047;-60
2022/09/10 08:38:42;;;;;;;20.77;15.50;;;17.20;99.90;;;;;;5095007;28;20483;-60
2022/09/10 08:41:20;;;;;;;21.02;16.38;;;17.20;99.90;;;;;;5087719;27;20038;-60
2022/09/10 08:43:52;;;;;;;20.98;17.73;;;17.30;99.90;;;;;;5081857;28;20047;-61
2022/09/10 08:46:24;;;;;;;21.60;16.80;;;17.30;99.90;;;;;;5109720;27;20043;-61
2022/09/10 08:49:05;;;;;;;19.23;16.80;;;17.30;99.90;;;;;;5131378;27;20074;-62
2022/09/10 08:51:49;;;;;;;21.67;17.77;;;17.30;99.90;;;;;;5092163;28;20405;-63
2022/09/10 08:54:20;;;;;;;23.40;17.80;;;17.30;99.90;;;;;;5080459;28;20040;-62
2022/09/10 08:56:47;;;;;;;22.67;16.27;;;17.30;99.90;;;;;;5074985;28;20115;-61
2022/09/10 08:59:21;;;;;;;21.67;16.30;;;17.30;99.90;;;;;;5108844;27;20384;-62
2022/09/10 09:01:54;;;;;;;23.83;17.10;;;17.30;99.90;;;;;;5099584;28;20040;-61
2022/09/10 09:04:42;;;;;;;23.75;16.88;;;17.30;99.90;;;;;;5058620;28;20511;-61
2022/09/10 09:07:14;;;;;;;21.88;16.20;;;17.30;99.90;;;;;;5090454;28;20074;-62
2022/09/10 09:09:40;;;;;;;18.10;15.95;;;17.40;99.90;;;;;;5058323;28;20040;-62
2022/09/10 09:12:31;;;;;;;20.50;17.48;;;17.40;99.90;;;;;;5069718;28;20422;-61
2022/09/10 09:15:32;;;;;;;20.73;15.60;;;17.40;99.90;;;;;;5111117;28;20365;-61
2022/09/10 09:18:20;;;;;;;23.05;16.92;;;17.50;99.90;;;;;;5079068;28;20044;-61
2022/09/10 09:20:53;;;;;;;19.00;15.57;;;17.50;99.90;;;;;;5093414;28;20447;-62
2022/09/10 09:23:21;;;;;;;21.88;16.83;;;17.50;99.90;;;;;;5097132;27;20031;-61
2022/09/10 09:25:50;;;;;;;21.65;16.17;;;17.40;99.90;;;;;;5112032;28;20036;-62
2022/09/10 09:28:19;;;;;;;22.55;16.77;;;17.40;99.90;;;;;;5111757;28;20090;-61
2022/09/10 09:30:48;;;;;;;21.38;15.45;;;17.40;99.90;;;;;;5122564;27;20044;-61
2022/09/10 09:33:18;;;;;;;23.35;18.25;;;17.40;99.90;;;;;;5082710;28;20034;-62
2022/09/10 09:35:47;;;;;;;21.45;17.33;;;17.50;99.90;;;;;;5088440;28;20051;-61
2022/09/10 09:38:42;;;;;;;21.65;14.85;;;17.50;99.90;;;;;;5094787;28;20100;-61
2022/09/10 09:41:31;;;;;;;21.88;15.65;;;17.60;99.90;;;;;;5064876;28;20472;-61
2022/09/10 09:44:14;;;;;;;22.27;16.98;;;17.70;99.90;;;;;;5105807;28;20079;-61
2022/09/10 09:46:39;;;;;;;23.92;17.33;;;17.70;99.90;;;;;;5099781;28;20123;-61
2022/09/10 09:49:10;;;;;;;26.45;17.77;;;17.70;99.90;;;;;;5074345;28;20132;-61
2022/09/10 09:51:36;;;;;;;24.13;17.33;;;17.70;99.90;;;;;;5111135;28;20040;-61
2022/09/10 09:54:12;;;;;;;21.45;16.08;;;17.70;99.90;;;;;;5116928;27;20039;-61
2022/09/10 09:56:44;;;;;;;20.73;15.50;;;17.70;99.90;;;;;;5091823;28;20040;-61
2022/09/10 09:59:30;;;;;;;23.83;16.08;;;17.70;99.90;;;;;;5074296;28;20050;-61
2022/09/10 10:02:03;;;;;;;21.27;16.65;;;17.70;99.90;;;;;;5099598;28;20047;-61
2022/09/10 10:04:33;;;;;;;22.63;16.27;;;17.70;99.90;;;;;;5096172;28;20051;-61
2022/09/10 10:07:01;;;;;;;17.77;14.50;;;17.80;99.90;;;;;;5103680;28;20391;-61
2022/09/10 10:09:29;;;;;;;21.23;16.20;;;17.80;99.90;;;;;;5119458;28;20023;-62
2022/09/10 10:12:03;;;;;;;21.35;15.07;;;17.90;99.90;;;;;;5080544;28;20044;-61
2022/09/10 10:14:42;;;;;;;19.47;14.73;;;17.90;99.90;;;;;;5057598;28;20040;-61
2022/09/10 10:17:21;;;;;;;20.55;15.93;;;18.00;99.90;;;;;;5110238;28;20328;-61
2022/09/10 10:20:11;;;;;;;20.15;15.98;;;18.00;99.90;;;;;;5108714;28;20146;-62
2022/09/10 10:22:44;;;;;;;20.08;14.02;;;18.00;99.90;;;;;;5099860;28;20499;-61
2022/09/10 10:25:40;;;;;;;24.80;17.33;;;18.00;99.90;;;;;;5104512;28;20096;-61
2022/09/10 10:28:23;;;;;;;20.35;14.85;;;18.10;99.90;;;;;;5077542;28;20047;-62
2022/09/10 10:30:59;;;;;;;19.48;13.60;;;18.20;99.90;;;;;;5093797;28;20067;-61
2022/09/10 10:33:32;;;;;;;20.50;14.73;;;18.20;99.90;;;;;;5111165;28;20445;-62
2022/09/10 10:36:06;;;;;;;17.90;14.05;;;18.30;99.90;;;;;;5111904;28;20046;-61
2022/09/10 10:38:41;;;;;;;19.40;14.25;;;18.30;99.90;;;;;;5092614;28;20039;-62
2022/09/10 10:41:30;;;;;;;18.20;13.07;;;18.40;99.90;;;;;;5111811;28;20063;-61
2022/09/10 10:44:22;;;;;;;20.30;12.45;;;18.50;99.90;;;;;;5093127;28;20051;-61
2022/09/10 10:47:04;;;;;;;21.17;13.40;;;18.60;99.90;;;;;;5092910;28;20045;-63
2022/09/10 10:49:56;;;;;;;17.58;13.90;;;18.70;99.90;;;;;;5094219;28;20480;-62
2022/09/10 10:52:40;;;;;;;17.77;13.75;;;18.90;99.90;;;;;;5093285;28;20047;-61
2022/09/10 10:55:18;;;;;;;17.05;12.57;;;19.00;99.90;;;;;;5095566;28;20042;-61
2022/09/10 10:58:11;;;;;;;16.75;13.15;;;19.00;99.90;;;;;;5106439;27;20051;-61
2022/09/10 11:00:50;;;;;;;15.35;12.52;;;19.00;99.90;;;;;;5135841;27;20046;-61
2022/09/10 11:03:27;;;;;;;21.80;13.35;;;19.00;99.90;;;;;;5077444;28;20040;-61
2022/09/10 11:05:59;;;;;;;19.95;14.48;;;19.00;99.90;;;;;;5077134;28;20106;-61
2022/09/10 11:08:33;;;;;;;19.23;14.32;;;19.10;99.90;;;;;;5076773;28;20048;-61
2022/09/10 11:11:23;;;;;;;17.88;14.88;;;19.00;99.90;;;;;;5094907;28;20111;-61
2022/09/10 11:14:13;;;;;;;16.77;12.93;;;19.10;99.90;;;;;;5075809;28;20036;-62
2022/09/10 11:16:48;;;;;;;19.45;14.55;;;19.00;99.90;;;;;;5094670;28;20519;-61
2022/09/10 11:19:39;;;;;;;18.77;14.63;;;18.90;99.90;;;;;;5078767;28;20048;-61
2022/09/10 11:22:30;;;;;;;16.80;13.43;;;18.90;99.90;;;;;;5075691;28;20056;-62
2022/09/10 11:24:55;;;;;;;16.35;12.20;;;19.00;99.90;;;;;;5076359;28;20426;-62
2022/09/10 11:27:42;;;;;;;16.65;13.07;;;19.10;99.90;;;;;;5080891;28;20066;-62
2022/09/10 11:30:16;;;;;;;17.73;12.90;;;19.30;99.90;;;;;;5095070;28;20047;-62
2022/09/10 11:32:57;;;;;;;14.65;11.90;;;19.30;99.90;;;;;;5095799;28;20036;-62
2022/09/10 11:35:44;;;;;;;17.58;12.60;;;19.40;99.90;;;;;;5094222;28;20055;-62
2022/09/10 11:38:28;;;;;;;13.10;11.32;;;19.50;99.90;;;;;;5094968;28;20081;-62
2022/09/10 11:41:20;;;;;;;16.38;11.23;;;19.50;99.90;;;;;;5094594;28;20044;-62
2022/09/10 11:43:55;;;;;;;15.82;11.68;;;19.60;99.90;;;;;;5093940;28;20052;-62
2022/09/10 11:46:31;;;;;;;17.15;11.80;;;19.60;99.90;;;;;;5086617;28;20124;-62
2022/09/10 11:49:06;;;;;;;13.10;9.73;;;19.60;99.90;;;;;;5095774;28;20042;-61
2022/09/10 11:51:35;;;;;;;16.33;11.77;;;19.60;99.90;;;;;;5114873;28;20040;-61
2022/09/10 11:54:03;;;;;;;13.73;9.55;;;19.50;99.90;;;;;;5114183;28;20042;-61
2022/09/10 11:56:42;;;;;;;15.73;10.80;;;19.70;99.90;;;;;;5114368;28;20052;-62
2022/09/10 11:59:41;;;;;;;14.82;10.32;;;19.80;99.90;;;;;;5114757;28;20054;-61
2022/09/10 12:02:21;;;;;;;13.82;11.18;;;19.90;99.90;;;;;;5115392;27;20035;-61
2022/09/10 12:05:09;;;;;;;17.15;10.95;;;19.80;99.90;;;;;;5094887;27;20040;-61
2022/09/10 12:07:41;;;;;;;18.75;10.55;;;19.80;99.90;;;;;;5096112;28;20036;-62
2022/09/10 12:10:22;;;;;;;15.52;10.57;;;19.70;99.90;;;;;;5113168;28;20118;-62
2022/09/10 12:12:49;;;;;;;16.45;11.23;;;19.60;99.90;;;;;;5095879;28;20112;-61
2022/09/10 12:15:29;;;;;;;14.25;10.13;;;19.50;99.90;;;;;;5114747;28;20046;-62
2022/09/10 12:18:11;;;;;;;14.38;9.55;;;19.60;99.90;;;;;;5094572;28;20043;-62
2022/09/10 12:20:48;;;;;;;13.60;9.15;;;19.80;99.90;;;;;;5075302;28;20523;-62
2022/09/10 12:23:27;;;;;;;12.75;8.60;;;19.90;99.90;;;;;;5092808;28;20485;-61
2022/09/10 12:26:07;;;;;;;11.20;9.20;;;20.10;99.90;;;;;;5091666;28;20042;-62
2022/09/10 12:28:44;;;;;;;11.32;8.07;;;20.10;99.90;;;;;;5092754;28;20047;-61
2022/09/10 12:31:19;;;;;;;11.80;9.00;;;20.10;99.90;;;;;;5094331;28;20446;-62
2022/09/10 12:33:45;;;;;;;12.45;8.55;;;20.10;99.90;;;;;;5088240;28;20439;-62
2022/09/10 12:36:34;;;;;;;14.10;10.25;;;20.10;99.90;;;;;;5101286;28;20146;-61
2022/09/10 12:39:27;;;;;;;13.60;10.65;;;20.10;99.90;;;;;;5072084;28;20119;-62
2022/09/10 12:41:56;;;;;;;13.13;10.07;;;20.00;99.90;;;;;;5072123;28;20381;-61
2022/09/10 12:44:36;;;;;;;16.30;11.32;;;20.00;99.90;;;;;;5084268;28;20121;-62
2022/09/10 12:47:17;;;;;;;13.40;9.93;;;19.90;99.90;;;;;;5072480;28;20082;-61
2022/09/10 12:50:01;;;;;;;13.27;10.80;;;19.90;99.90;;;;;;5082589;28;20465;-62